createdAt,value
2023-06-06T00:00:29.580Z,9.63
2023-06-06T00:04:32.516Z,7.60
2023-06-06T00:08:36.769Z,9.30
2023-06-06T00:12:42.299Z,7.00
2023-06-06T00:16:48.086Z,7.53
2023-06-06T00:20:54.245Z,7.93
2023-06-06T00:24:58.444Z,8.15
2023-06-06T00:29:01.398Z,8.48
2023-06-06T00:33:04.372Z,8.82
2023-06-06T00:37:07.763Z,7.72
2023-06-06T00:41:13.123Z,5.50
2023-06-06T00:45:17.351Z,5.32
2023-06-06T00:49:24.860Z,4.32
2023-06-06T00:53:27.864Z,4.45
2023-06-06T00:57:32.225Z,5.53
2023-06-06T01:01:37.980Z,5.13
2023-06-06T01:05:41.676Z,3.80
2023-06-06T01:09:45.460Z,3.90
2023-06-06T01:13:58.753Z,3.40
2023-06-06T01:18:03.120Z,3.38
2023-06-06T01:22:08.018Z,4.03
2023-06-06T01:26:13.632Z,3.70
2023-06-06T01:30:20.539Z,5.17
2023-06-06T01:34:31.745Z,5.53
2023-06-06T01:38:42.371Z,4.18
2023-06-06T01:42:48.753Z,4.22
2023-06-06T01:50:55.362Z,4.13
2023-06-06T01:55:00.262Z,8.13
2023-06-06T01:59:03.376Z,4.60
2023-06-06T02:03:06.402Z,3.60
2023-06-06T02:07:09.382Z,5.75
2023-06-06T02:11:13.812Z,7.35
2023-06-06T02:15:18.141Z,4.30
2023-06-06T02:19:21.343Z,5.03
2023-06-06T02:23:24.210Z,5.03
2023-06-06T02:27:30.431Z,5.03
2023-06-06T02:31:33.360Z,4.32
2023-06-06T02:35:37.095Z,5.43
2023-06-06T02:39:40.094Z,5.25
2023-06-06T02:43:44.371Z,8.20
2023-06-06T02:47:47.493Z,4.60
2023-06-06T02:51:54.302Z,5.88
2023-06-06T02:55:57.164Z,5.45
2023-06-06T03:00:01.596Z,7.05
2023-06-06T03:04:05.366Z,4.63
2023-06-06T03:08:08.299Z,5.47
2023-06-06T03:12:12.532Z,4.65
2023-06-06T03:16:17.834Z,6.00
2023-06-06T03:20:21.785Z,5.28
2023-06-06T03:24:36.943Z,5.60
2023-06-06T03:28:44.341Z,5.35
2023-06-06T03:32:53.116Z,4.63
2023-06-06T03:36:56.413Z,8.00
2023-06-06T03:40:59.588Z,6.40
2023-06-06T03:45:02.616Z,4.78
2023-06-06T03:49:07.015Z,4.40
2023-06-06T03:53:09.875Z,6.82
2023-06-06T03:57:13.954Z,5.47
2023-06-06T04:01:19.745Z,6.15
2023-06-06T04:05:24.556Z,5.63
2023-06-06T04:09:27.630Z,8.68
2023-06-06T04:13:30.483Z,5.72
2023-06-06T04:17:33.384Z,7.57
2023-06-06T04:21:37.923Z,7.47
2023-06-06T04:25:40.731Z,10.00
2023-06-06T04:29:43.624Z,5.25
2023-06-06T04:33:56.702Z,5.15
2023-06-06T04:38:03.860Z,7.68
2023-06-06T04:42:07.816Z,6.00
2023-06-06T04:46:10.736Z,6.30
2023-06-06T04:50:16.534Z,9.10
2023-06-06T04:58:29.758Z,5.60
2023-06-06T05:02:32.597Z,7.85
2023-06-06T05:06:36.163Z,6.50
2023-06-06T05:10:42.827Z,9.73
2023-06-06T05:14:45.705Z,6.88
2023-06-06T05:18:48.561Z,7.20
2023-06-06T05:22:51.548Z,7.47
2023-06-06T05:26:58.599Z,7.75
2023-06-06T05:31:03.705Z,7.50
2023-06-06T05:35:07.729Z,8.45
2023-06-06T05:39:11.552Z,9.20
2023-06-06T05:43:16.768Z,10.80
2023-06-06T05:47:19.723Z,11.80
2023-06-06T05:51:22.802Z,15.15
2023-06-06T05:55:29.156Z,12.88
2023-06-06T05:59:35.322Z,12.30
2023-06-06T06:03:39.688Z,15.63
2023-06-06T06:07:42.732Z,14.55
2023-06-06T06:11:45.533Z,13.32
2023-06-06T06:15:49.984Z,12.45
2023-06-06T06:19:53.627Z,12.10
2023-06-06T06:23:56.489Z,12.75
2023-06-06T06:27:59.353Z,13.10
2023-06-06T06:32:03.594Z,13.30
2023-06-06T06:36:07.374Z,12.45
2023-06-06T06:40:12.051Z,9.38
2023-06-06T06:44:15.229Z,10.80
2023-06-06T06:48:19.396Z,11.05
2023-06-06T06:52:22.377Z,8.07
2023-06-06T06:56:25.399Z,9.50
2023-06-06T07:00:28.381Z,9.93
2023-06-06T07:04:37.710Z,7.75
2023-06-06T07:08:42.709Z,8.20
2023-06-06T07:12:48.452Z,6.43
2023-06-06T07:16:51.293Z,7.03
2023-06-06T07:20:55.543Z,7.22
2023-06-06T07:24:58.627Z,5.60
2023-06-06T07:29:01.472Z,6.82
2023-06-06T07:33:05.013Z,7.13
2023-06-06T07:37:09.665Z,5.97
2023-06-06T07:41:12.760Z,8.63
2023-06-06T07:45:15.789Z,5.82
2023-06-06T07:49:18.635Z,4.18
2023-06-06T07:53:22.969Z,4.82
2023-06-06T07:57:26.881Z,7.85
2023-06-06T08:01:30.951Z,6.93
2023-06-06T08:05:35.304Z,3.25
2023-06-06T08:09:39.968Z,3.88
2023-06-06T08:13:43.027Z,5.97
2023-06-06T08:17:46.693Z,3.88
2023-06-06T08:21:49.642Z,3.28
2023-06-06T08:25:56.762Z,6.50
2023-06-06T08:30:00.928Z,5.68
2023-06-06T08:34:04.226Z,5.53
2023-06-06T08:38:07.093Z,5.88
2023-06-06T08:42:12.707Z,3.28
2023-06-06T08:46:16.485Z,7.32
2023-06-06T08:50:21.985Z,3.40
2023-06-06T08:54:26.396Z,3.95
2023-06-06T08:58:31.813Z,3.25
2023-06-06T09:02:34.818Z,3.20
2023-06-06T09:06:42.213Z,9.18
2023-06-06T09:10:46.914Z,3.47
2023-06-06T09:14:51.216Z,2.78
2023-06-06T09:18:54.197Z,2.50
2023-06-06T09:22:58.633Z,6.00
2023-06-06T09:27:01.868Z,4.60
2023-06-06T09:31:24.250Z,2.42
2023-06-06T09:35:31.609Z,3.28
2023-06-06T09:39:34.794Z,3.35
2023-06-06T09:43:39.027Z,2.35
2023-06-06T09:47:46.697Z,2.72
2023-06-06T09:51:54.555Z,5.30
2023-06-06T10:00:03.786Z,3.97
2023-06-06T10:04:16.711Z,4.05
2023-06-06T10:08:21.174Z,6.28
2023-06-06T10:12:24.785Z,2.92
2023-06-06T10:16:30.768Z,7.30
2023-06-06T10:24:39.938Z,4.13
2023-06-06T10:28:51.868Z,4.03
2023-06-06T10:33:03.846Z,4.40
2023-06-06T10:37:17.608Z,5.40
2023-06-06T10:41:20.461Z,3.85
2023-06-06T10:45:43.129Z,4.10
2023-06-06T10:50:22.411Z,3.47
2023-06-06T10:54:29.865Z,3.45
2023-06-06T10:58:36.368Z,7.15
2023-06-06T11:02:41.792Z,4.85
2023-06-06T11:06:45.462Z,3.70
2023-06-06T11:10:49.705Z,3.92
2023-06-06T11:14:59.710Z,4.57
2023-06-06T11:19:04.333Z,3.90
2023-06-06T11:23:07.232Z,7.40
2023-06-06T11:27:11.621Z,3.90
2023-06-06T11:31:18.165Z,6.43
2023-06-06T11:35:22.525Z,4.72
2023-06-06T11:39:29.467Z,5.88
2023-06-06T11:43:33.864Z,3.83
2023-06-06T11:47:36.690Z,5.82
2023-06-06T11:51:39.658Z,4.85
2023-06-06T11:55:42.918Z,3.00
2023-06-06T11:59:54.891Z,2.63
2023-06-06T12:03:58.309Z,2.78
2023-06-06T12:08:01.641Z,4.32
2023-06-06T12:12:06.340Z,5.38
2023-06-06T12:16:10.919Z,4.85
2023-06-06T12:20:23.157Z,3.88
2023-06-06T12:24:27.457Z,5.32
2023-06-06T12:28:30.352Z,3.88
2023-06-06T12:32:37.499Z,4.38
2023-06-06T12:36:41.002Z,4.43
2023-06-06T12:44:47.535Z,2.65
2023-06-06T12:48:52.015Z,4.63
2023-06-06T12:52:54.950Z,3.58
2023-06-06T12:56:57.823Z,7.85
2023-06-06T13:01:00.751Z,3.67
2023-06-06T13:05:06.838Z,8.50
2023-06-06T13:09:09.745Z,7.28
2023-06-06T13:13:12.629Z,5.97
2023-06-06T13:17:15.634Z,3.20
2023-06-06T13:21:19.946Z,3.63
2023-06-06T13:25:23.225Z,3.83
2023-06-06T13:29:26.221Z,5.80
2023-06-06T13:33:29.301Z,7.50
2023-06-06T13:37:33.697Z,3.30
2023-06-06T13:41:37.344Z,6.13
2023-06-06T13:45:40.292Z,8.15
2023-06-06T13:49:43.184Z,3.17
2023-06-06T13:53:47.576Z,7.80
2023-06-06T13:57:53.460Z,7.32
2023-06-06T14:01:56.946Z,5.95
2023-06-06T14:05:59.976Z,3.58
2023-06-06T14:10:04.550Z,5.43
2023-06-06T14:14:07.671Z,3.70
2023-06-06T14:18:10.697Z,4.45
2023-06-06T14:22:25.113Z,3.95
2023-06-06T14:26:29.733Z,8.43
2023-06-06T14:30:32.590Z,2.83
2023-06-06T14:34:35.461Z,4.43
2023-06-06T14:38:38.985Z,3.38
2023-06-06T14:42:43.190Z,3.60
2023-06-06T14:46:46.118Z,4.00
2023-06-06T14:50:49.006Z,7.25
2023-06-06T14:54:51.897Z,5.32
2023-06-06T14:58:56.150Z,4.82
2023-06-06T15:03:00.369Z,4.43
2023-06-06T15:07:05.206Z,8.40
2023-06-06T15:11:08.288Z,4.57
2023-06-06T15:15:12.925Z,3.08
2023-06-06T15:19:17.210Z,6.38
2023-06-06T15:23:20.167Z,4.82
2023-06-06T15:27:23.253Z,3.22
2023-06-06T15:31:27.923Z,3.50
2023-06-06T15:35:31.518Z,3.67
2023-06-06T15:40:51.797Z,5.22
2023-06-06T15:45:17.786Z,5.45
2023-06-06T15:49:36.691Z,4.20
2023-06-06T15:53:47.292Z,11.57
2023-06-06T15:57:56.336Z,3.75
2023-06-06T16:02:01.528Z,4.40
2023-06-06T16:06:07.352Z,2.60
2023-06-06T16:10:11.455Z,7.57
2023-06-06T16:14:14.925Z,3.25
2023-06-06T16:18:28.275Z,5.05
2023-06-06T16:22:32.496Z,3.42
2023-06-06T16:26:35.384Z,2.42
2023-06-06T16:36:40.171Z,6.63
2023-06-06T16:40:46.663Z,3.78
2023-06-06T16:51:15.531Z,4.60
2023-06-06T16:55:40.796Z,5.70
2023-06-06T16:59:45.669Z,7.65
2023-06-06T17:04:10.979Z,3.75
2023-06-06T17:08:14.024Z,3.03
2023-06-06T17:12:18.288Z,2.42
2023-06-06T17:22:48.186Z,2.65
2023-06-06T17:33:24.121Z,8.38
2023-06-06T17:37:38.543Z,4.80
2023-06-06T17:41:54.224Z,2.72
2023-06-06T17:46:02.274Z,2.50
2023-06-06T17:50:19.173Z,3.13
2023-06-06T17:54:32.148Z,3.70
2023-06-06T17:58:52.998Z,3.30
2023-06-06T18:02:57.406Z,5.15
2023-06-06T18:07:37.458Z,3.40
2023-06-06T18:11:48.141Z,2.40
2023-06-06T18:15:57.975Z,3.28
2023-06-06T18:20:03.462Z,1.60
2023-06-06T18:24:27.536Z,2.27
2023-06-06T18:28:51.625Z,4.03
2023-06-06T18:33:25.651Z,2.33
2023-06-06T18:38:12.126Z,3.70
2023-06-06T18:42:43.038Z,1.75
2023-06-06T18:46:52.312Z,3.72
2023-06-06T18:55:39.099Z,1.90
2023-06-06T19:00:05.830Z,3.35
2023-06-06T19:04:36.830Z,1.45
2023-06-06T19:08:56.274Z,3.08
2023-06-06T19:13:25.200Z,6.57
2023-06-06T19:17:30.154Z,3.35
2023-06-06T19:21:39.459Z,2.95
2023-06-06T19:25:44.475Z,4.78
2023-06-06T19:29:49.212Z,2.13
2023-06-06T19:33:53.157Z,1.98
2023-06-06T19:37:56.284Z,2.08
2023-06-06T19:42:00.741Z,3.05
2023-06-06T19:46:03.985Z,2.97
2023-06-06T19:50:10.471Z,2.03
2023-06-06T19:58:19.980Z,9.10
2023-06-06T20:02:25.232Z,2.25
2023-06-06T20:06:31.616Z,2.47
2023-06-06T20:14:39.335Z,2.50
2023-06-06T20:18:42.356Z,2.35
2023-06-06T20:22:46.665Z,2.00
2023-06-06T20:26:49.639Z,2.00
2023-06-06T20:30:54.417Z,2.35
2023-06-06T20:34:57.393Z,4.82
2023-06-06T20:39:00.699Z,6.10
2023-06-06T20:43:03.751Z,3.30
2023-06-06T20:47:08.668Z,2.90
2023-06-06T20:51:12.348Z,2.95
2023-06-06T20:55:16.372Z,6.10
2023-06-06T20:59:19.652Z,3.75
2023-06-06T21:03:24.358Z,4.57
2023-06-06T21:07:27.571Z,3.85
2023-06-06T21:11:30.742Z,3.50
2023-06-06T21:15:33.861Z,3.25
2023-06-06T21:19:38.357Z,3.58
2023-06-06T21:23:41.469Z,5.28
2023-06-06T21:27:44.545Z,14.00
2023-06-06T21:31:47.735Z,6.88
2023-06-06T21:35:52.188Z,5.57
2023-06-06T21:39:55.281Z,4.40
2023-06-06T21:43:58.386Z,5.03
2023-06-06T21:48:01.580Z,8.75
2023-06-06T21:52:06.586Z,4.45
2023-06-06T21:56:09.896Z,6.55
2023-06-06T22:00:15.088Z,4.28
2023-06-06T22:04:19.591Z,5.47
2023-06-06T22:08:24.125Z,5.35
2023-06-06T22:12:27.149Z,6.00
2023-06-06T22:16:30.260Z,4.05
2023-06-06T22:20:33.317Z,4.78
2023-06-06T22:24:37.887Z,3.88
2023-06-06T22:28:41.080Z,4.22
2023-06-06T22:32:44.148Z,9.13
2023-06-06T22:36:47.217Z,6.68
2023-06-06T22:40:51.702Z,4.97
2023-06-06T22:44:54.715Z,5.07
2023-06-06T22:48:57.904Z,10.70
2023-06-06T22:53:00.939Z,11.07
2023-06-06T22:57:06.055Z,9.05
2023-06-06T23:01:10.248Z,7.45
2023-06-06T23:05:13.779Z,6.45
2023-06-06T23:09:17.350Z,4.80
2023-06-06T23:13:21.807Z,9.20
2023-06-06T23:17:25.471Z,5.53
2023-06-06T23:21:29.722Z,7.53
2023-06-06T23:25:32.758Z,5.20
2023-06-06T23:29:37.163Z,6.97
2023-06-06T23:33:40.222Z,5.88
2023-06-06T23:37:43.279Z,3.97
2023-06-06T23:41:46.321Z,12.55
2023-06-06T23:45:51.325Z,5.00
2023-06-06T23:49:54.572Z,4.63
2023-06-06T23:53:57.978Z,4.97
2023-06-06T23:58:01.194Z,6.18
